createdAt,value
2017-06-10T05:56:51.062Z,332
2017-06-10T05:57:52.498Z,340
2017-06-10T05:58:53.924Z,340
2017-06-10T05:59:55.359Z,340
2017-06-10T06:00:56.791Z,336
2017-06-10T06:01:58.218Z,336
2017-06-10T06:02:59.652Z,336
2017-06-10T06:04:01.079Z,336
2017-06-10T06:05:02.509Z,336
2017-06-10T06:06:03.933Z,340
2017-06-10T06:07:05.360Z,340
2017-06-10T06:08:06.785Z,336
2017-06-10T06:09:08.216Z,336
2017-06-10T06:10:09.663Z,336
2017-06-10T06:11:11.092Z,340
2017-06-10T06:12:12.520Z,340
2017-06-10T06:13:13.954Z,340
2017-06-10T06:14:15.378Z,340
2017-06-10T06:15:16.801Z,340
2017-06-10T06:16:18.229Z,340
2017-06-10T06:17:19.662Z,340
2017-06-10T06:18:21.090Z,340
2017-06-10T06:19:22.518Z,344
2017-06-10T06:20:23.941Z,344
2017-06-10T06:21:25.368Z,352
2017-06-10T06:22:26.794Z,344
2017-06-10T06:23:28.220Z,348
2017-06-10T06:24:29.657Z,348
2017-06-10T06:25:31.074Z,348
2017-06-10T06:26:32.505Z,352
2017-06-10T06:27:33.936Z,348
2017-06-10T06:28:35.372Z,352
2017-06-10T06:29:36.798Z,352
2017-06-10T06:30:38.225Z,356
2017-06-10T06:31:39.657Z,356
2017-06-10T06:32:41.087Z,360
2017-06-10T06:33:42.523Z,360
2017-06-10T06:34:45.435Z,360
2017-06-10T06:35:46.870Z,360
2017-06-10T06:36:48.294Z,360
2017-06-10T06:37:49.723Z,360
2017-06-10T06:38:51.153Z,364
2017-06-10T06:39:52.581Z,372
2017-06-10T06:40:54.011Z,368
2017-06-10T06:41:55.436Z,372
2017-06-10T06:42:56.871Z,372
2017-06-10T06:43:58.300Z,376
2017-06-10T06:44:59.734Z,380
2017-06-10T06:46:01.163Z,380
2017-06-10T06:47:02.597Z,380
2017-06-10T06:48:04.033Z,384
2017-06-10T06:49:05.458Z,384
2017-06-10T06:50:06.878Z,392
2017-06-10T06:51:08.311Z,392
2017-06-10T06:52:09.738Z,396
2017-06-10T06:53:11.169Z,396
2017-06-10T06:54:12.593Z,396
2017-06-10T06:55:14.036Z,404
2017-06-10T06:56:15.468Z,408
2017-06-10T06:57:16.898Z,408
2017-06-10T06:58:18.328Z,408
2017-06-10T06:59:19.761Z,416
2017-06-10T07:00:21.194Z,424
2017-06-10T07:01:22.629Z,432
2017-06-10T07:02:24.068Z,428
2017-06-10T07:03:25.505Z,432
2017-06-10T07:04:26.944Z,436
2017-06-10T07:05:28.375Z,440
2017-06-10T07:06:29.811Z,448
2017-06-10T07:07:31.235Z,460
2017-06-10T07:08:32.669Z,452
2017-06-10T07:09:34.097Z,460
2017-06-10T07:10:35.526Z,456
2017-06-10T07:11:36.955Z,464
2017-06-10T07:12:38.379Z,472
2017-06-10T07:13:39.813Z,472
2017-06-10T07:14:41.243Z,468
2017-06-10T07:15:42.683Z,476
2017-06-10T07:16:44.121Z,476
2017-06-10T07:17:45.559Z,484
2017-06-10T07:18:46.999Z,488
2017-06-10T07:19:48.428Z,488
2017-06-10T07:20:49.863Z,492
2017-06-10T07:21:51.292Z,496
2017-06-10T07:22:52.721Z,504
2017-06-10T07:23:54.145Z,504
2017-06-10T07:24:55.569Z,504
2017-06-10T07:25:57.003Z,504
2017-06-10T07:26:58.432Z,512
2017-06-10T07:27:59.853Z,512
2017-06-10T07:29:01.292Z,512
2017-06-10T07:30:02.722Z,512
2017-06-10T07:31:04.152Z,516
2017-06-10T07:32:05.579Z,516
2017-06-10T07:33:07.010Z,520
2017-06-10T07:34:08.445Z,520
2017-06-10T07:35:09.881Z,520
2017-06-10T07:36:11.321Z,520
2017-06-10T07:37:12.782Z,476
2017-06-10T07:38:14.225Z,528
2017-06-10T07:39:15.646Z,536
2017-06-10T07:40:17.078Z,540
2017-06-10T07:41:18.513Z,544
2017-06-10T07:42:19.944Z,544
2017-06-10T07:43:21.377Z,544
2017-06-10T07:44:22.899Z,548
2017-06-10T07:45:24.369Z,552
2017-06-10T07:46:25.799Z,552
2017-06-10T07:47:27.233Z,552
2017-06-10T07:48:28.652Z,560
2017-06-10T07:49:30.089Z,556
2017-06-10T07:50:31.528Z,556
2017-06-10T07:51:32.957Z,560
2017-06-10T07:52:34.446Z,560
2017-06-10T07:53:35.880Z,560
2017-06-10T07:54:37.309Z,560
2017-06-10T07:55:38.797Z,564
2017-06-10T07:56:40.226Z,568
2017-06-10T07:57:41.651Z,572
2017-06-10T07:58:43.082Z,568
2017-06-10T07:59:44.516Z,580
2017-06-10T08:00:45.949Z,572
2017-06-10T08:01:47.380Z,576
2017-06-10T08:02:48.811Z,576
2017-06-10T08:03:50.326Z,580
2017-06-10T08:04:51.753Z,580
2017-06-10T08:05:53.183Z,580
2017-06-10T08:06:54.684Z,580
2017-06-10T08:07:56.116Z,584
2017-06-10T08:08:57.546Z,580
2017-06-10T08:09:58.974Z,588
2017-06-10T08:11:00.413Z,596
2017-06-10T08:12:01.845Z,612
2017-06-10T08:13:03.278Z,600
2017-06-10T08:14:04.752Z,608
2017-06-10T08:15:06.187Z,612
2017-06-10T08:16:07.615Z,628
2017-06-10T08:17:09.048Z,628
2017-06-10T08:18:10.480Z,640
2017-06-10T08:19:11.908Z,648
2017-06-10T08:20:13.344Z,656
2017-06-10T08:21:14.922Z,660
2017-06-10T08:22:16.361Z,676
2017-06-10T08:23:17.792Z,688
2017-06-10T08:24:19.222Z,692
2017-06-10T08:25:20.685Z,700
2017-06-10T08:26:22.132Z,704
2017-06-10T08:27:23.579Z,712
2017-06-10T08:28:24.998Z,712
2017-06-10T08:29:26.432Z,716
2017-06-10T08:30:27.864Z,724
2017-06-10T08:31:29.295Z,752
2017-06-10T08:32:30.728Z,732
2017-06-10T08:33:32.208Z,744
2017-06-10T08:34:33.645Z,748
2017-06-10T08:35:35.087Z,776
2017-06-10T08:36:36.511Z,836
2017-06-10T08:37:37.951Z,896
2017-06-10T08:38:39.377Z,964
2017-06-10T08:39:40.824Z,996
2017-06-10T08:40:42.277Z,992
2017-06-10T08:41:43.714Z,1020
2017-06-10T08:42:45.151Z,916
2017-06-10T08:43:46.587Z,1024
2017-06-10T08:44:48.022Z,1112
2017-06-10T08:45:49.450Z,1148
2017-06-10T08:46:50.889Z,1044
2017-06-10T08:47:52.325Z,1040
2017-06-10T08:48:53.758Z,860
2017-06-10T08:49:55.195Z,1012
2017-06-10T08:50:56.622Z,836
2017-06-10T08:51:58.065Z,796
2017-06-10T08:52:59.493Z,864
2017-06-10T08:54:00.929Z,976
2017-06-10T08:55:02.359Z,752
2017-06-10T08:56:03.793Z,860
2017-06-10T08:57:05.233Z,864
2017-06-10T08:58:06.672Z,888
2017-06-10T08:59:08.098Z,856
2017-06-10T09:00:09.528Z,772
2017-06-10T09:01:10.963Z,876
2017-06-10T09:02:12.430Z,808
2017-06-10T09:03:13.867Z,800
2017-06-10T09:04:15.299Z,764
2017-06-10T09:05:16.732Z,824
2017-06-10T09:06:18.161Z,824
2017-06-10T09:07:19.596Z,808
2017-06-10T09:08:21.032Z,848
2017-06-10T09:09:22.462Z,864
2017-06-10T09:10:23.891Z,812
2017-06-10T09:11:25.319Z,820
2017-06-10T09:12:26.756Z,880
2017-06-10T09:13:28.191Z,920
2017-06-10T09:14:29.624Z,944
2017-06-10T09:15:31.061Z,1020
2017-06-10T09:16:32.501Z,1156
2017-06-10T09:17:33.946Z,1104
2017-06-10T09:18:35.389Z,1232
2017-06-10T09:19:36.823Z,1196
2017-06-10T09:20:38.265Z,1292
2017-06-10T09:21:39.690Z,1316
2017-06-10T09:22:41.121Z,1248
2017-06-10T09:23:42.562Z,1164
2017-06-10T09:24:43.999Z,1208
2017-06-10T09:25:45.427Z,1328
2017-06-10T09:26:46.859Z,1532
2017-06-10T09:27:48.302Z,1816
2017-06-10T09:28:49.734Z,1872
2017-06-10T09:29:51.168Z,1624
2017-06-10T09:30:52.603Z,1556
2017-06-10T09:31:54.043Z,1740
2017-06-10T09:32:55.484Z,1804
2017-06-10T09:33:56.922Z,1612
2017-06-10T09:34:58.371Z,1720
2017-06-10T09:35:59.806Z,1824
2017-06-10T09:37:01.238Z,1716
2017-06-10T09:38:02.674Z,1760
2017-06-10T09:39:04.110Z,1644
2017-06-10T09:40:05.544Z,1664
2017-06-10T09:41:06.987Z,1532
2017-06-10T09:42:08.425Z,1720
2017-06-10T09:43:09.857Z,1712
2017-06-10T09:44:11.291Z,1344
2017-06-10T09:45:12.737Z,1368
2017-06-10T09:46:14.169Z,1504
2017-06-10T09:47:15.606Z,1584
2017-06-10T09:48:17.040Z,1636
2017-06-10T09:49:18.473Z,1384
2017-06-10T09:50:19.903Z,1352
2017-06-10T09:51:21.342Z,1332
2017-06-10T09:52:22.772Z,1428
2017-06-10T09:53:24.213Z,1336
2017-06-10T09:54:25.654Z,1364
2017-06-10T09:55:27.084Z,1512
2017-06-10T09:56:28.521Z,1828
2017-06-10T09:57:29.957Z,2024
2017-06-10T09:58:31.392Z,1932
2017-06-10T09:59:32.830Z,1836
2017-06-10T10:00:34.267Z,1600
2017-06-10T10:01:35.702Z,1232
2017-06-10T10:02:37.134Z,1016
2017-06-10T10:03:38.565Z,1104
2017-06-10T10:04:40.003Z,1188
2017-06-10T10:05:41.431Z,1156
2017-06-10T10:06:42.868Z,1172
2017-06-10T10:07:44.304Z,1224
2017-06-10T10:08:45.736Z,1276
2017-06-10T10:09:47.174Z,1276
2017-06-10T10:10:48.605Z,1200
2017-06-10T10:11:50.040Z,1040
2017-06-10T10:12:51.484Z,1164
2017-06-10T10:13:52.917Z,1168
2017-06-10T10:14:54.355Z,1172
2017-06-10T10:15:55.786Z,1180
2017-06-10T10:16:57.215Z,1140
2017-06-10T10:17:58.646Z,1192
2017-06-10T10:19:00.084Z,1272
2017-06-10T10:20:01.517Z,1348
2017-06-10T10:21:02.955Z,1508
2017-06-10T10:22:04.391Z,2056
2017-06-10T10:23:05.837Z,780
2017-06-10T10:24:07.266Z,2816
2017-06-10T10:25:08.714Z,2992
2017-06-10T10:26:10.152Z,3028
2017-06-10T10:27:11.589Z,3088
2017-06-10T10:28:13.062Z,2900
2017-06-10T10:29:14.489Z,3148
2017-06-10T10:30:15.933Z,2996
2017-06-10T10:31:17.380Z,3056
2017-06-10T10:32:18.817Z,3032
2017-06-10T10:33:20.250Z,3168
2017-06-10T10:34:21.684Z,3392
2017-06-10T10:35:23.125Z,3392
2017-06-10T10:36:24.583Z,3548
2017-06-10T10:37:25.992Z,3388
2017-06-10T10:38:27.453Z,3340
2017-06-10T10:39:28.867Z,3332
2017-06-10T10:40:30.299Z,3344
2017-06-10T10:41:31.739Z,3304
2017-06-10T10:42:33.175Z,3148
2017-06-10T10:43:34.661Z,3096
2017-06-10T10:44:36.098Z,3040
2017-06-10T10:45:37.530Z,3032
2017-06-10T10:46:38.968Z,3084
2017-06-10T10:47:40.411Z,3044
2017-06-10T10:48:41.858Z,2936
2017-06-10T10:49:43.289Z,2920
2017-06-10T10:50:44.731Z,3084
2017-06-10T10:51:46.164Z,3168
2017-06-10T10:52:47.601Z,3220
2017-06-10T10:53:49.041Z,3356
2017-06-10T10:54:50.492Z,3352
2017-06-10T10:55:51.940Z,3276
2017-06-10T10:56:53.369Z,3204
2017-06-10T10:57:54.816Z,3144
2017-06-10T10:58:56.291Z,3176
2017-06-10T10:59:57.721Z,3272
2017-06-10T11:00:59.165Z,3148
2017-06-10T11:02:00.607Z,3080
2017-06-10T11:03:02.035Z,3228
2017-06-10T11:04:03.470Z,3224
2017-06-10T11:05:04.902Z,3640
2017-06-10T11:06:06.334Z,3100
2017-06-10T11:07:07.791Z,3300
2017-06-10T11:08:09.220Z,3756
2017-06-10T11:09:10.661Z,3508
2017-06-10T11:10:12.102Z,3308
2017-06-10T11:11:13.541Z,3332
2017-06-10T11:12:14.986Z,3436
2017-06-10T11:13:16.421Z,3636
2017-06-10T11:14:17.854Z,3556
2017-06-10T11:15:19.297Z,3164
2017-06-10T11:16:20.736Z,3180
2017-06-10T11:17:22.172Z,3752
2017-06-10T11:18:23.605Z,3296
2017-06-10T11:19:25.045Z,3572
2017-06-10T11:20:26.477Z,3896
2017-06-10T11:21:27.920Z,3940
2017-06-10T11:22:29.352Z,3648
2017-06-10T11:23:30.784Z,3964
2017-06-10T11:24:32.226Z,3992
2017-06-10T11:25:33.662Z,4372
2017-06-10T11:26:35.086Z,4400
2017-06-10T11:27:36.521Z,3696
2017-06-10T11:28:37.959Z,3356
2017-06-10T11:29:39.398Z,3776
2017-06-10T11:30:40.843Z,3616
2017-06-10T11:31:42.273Z,3972
2017-06-10T11:32:43.714Z,4172
2017-06-10T11:33:45.158Z,4464
2017-06-10T11:34:46.593Z,4468
2017-06-10T11:35:48.038Z,4480
2017-06-10T11:36:49.480Z,3900
2017-06-10T11:37:50.920Z,4312
2017-06-10T11:38:52.359Z,4184
2017-06-10T11:39:53.799Z,4452
2017-06-10T11:40:55.238Z,4120
2017-06-10T11:41:56.673Z,3828
2017-06-10T11:42:58.111Z,4176
2017-06-10T11:43:59.546Z,4224
2017-06-10T11:45:00.990Z,4560
2017-06-10T11:46:02.426Z,4360
2017-06-10T11:47:03.868Z,4104
2017-06-10T11:48:05.301Z,4836
2017-06-10T11:49:06.746Z,4076
2017-06-10T11:50:08.184Z,3988
2017-06-10T11:51:09.632Z,4076
2017-06-10T11:52:11.067Z,4244
2017-06-10T11:53:12.508Z,4372
2017-06-10T11:54:13.939Z,4896
2017-06-10T11:55:15.381Z,5100
2017-06-10T11:56:16.809Z,4852
2017-06-10T11:57:18.245Z,4304
2017-06-10T11:58:19.678Z,4352
2017-06-10T11:59:21.119Z,4328
2017-06-10T12:00:22.550Z,4300
2017-06-10T12:01:23.995Z,4376
2017-06-10T12:02:25.431Z,4112
2017-06-10T12:03:26.870Z,4304
2017-06-10T12:04:28.316Z,4568
2017-06-10T12:05:29.738Z,4212
2017-06-10T12:06:31.177Z,3964
2017-06-10T12:07:32.610Z,3972
2017-06-10T12:08:34.050Z,3860
2017-06-10T12:09:35.483Z,4052
2017-06-10T12:10:36.920Z,3956
2017-06-10T12:11:38.362Z,3656
2017-06-10T12:12:39.803Z,4540
2017-06-10T12:13:41.244Z,4636
2017-06-10T12:14:42.681Z,4660
2017-06-10T12:15:44.119Z,4908
2017-06-10T12:16:45.557Z,4864
2017-06-10T12:17:46.991Z,4172
2017-06-10T12:18:48.431Z,3496
2017-06-10T12:19:49.867Z,4216
2017-06-10T12:20:51.303Z,4456
2017-06-10T12:21:52.740Z,4392
2017-06-10T12:22:54.189Z,4260
2017-06-10T12:23:55.636Z,4016
2017-06-10T12:24:57.084Z,3964
2017-06-10T12:25:58.507Z,4004
2017-06-10T12:26:59.942Z,4192
2017-06-10T12:28:01.379Z,4880
2017-06-10T12:29:02.828Z,5080
2017-06-10T12:30:04.264Z,5092
2017-06-10T12:31:05.696Z,5056
2017-06-10T12:32:07.130Z,4772
2017-06-10T12:33:08.571Z,4552
2017-06-10T12:34:10.014Z,4084
2017-06-10T12:35:11.451Z,4012
2017-06-10T12:36:12.886Z,4068
2017-06-10T12:37:14.325Z,4096
2017-06-10T12:38:15.753Z,3492
2017-06-10T12:39:17.189Z,4336
2017-06-10T12:40:18.641Z,4436
2017-06-10T12:41:20.074Z,4716
2017-06-10T12:42:21.512Z,3464
2017-06-10T12:43:22.948Z,3028
2017-06-10T12:44:24.381Z,2728
2017-06-10T12:45:25.821Z,2348
2017-06-10T12:46:27.257Z,1932
2017-06-10T12:47:28.725Z,1948
2017-06-10T12:48:30.134Z,2468
2017-06-10T12:49:31.574Z,2816
2017-06-10T12:50:33.009Z,2836
2017-06-10T12:51:34.451Z,3520
2017-06-10T12:52:35.881Z,3868
2017-06-10T12:53:37.324Z,4264
2017-06-10T12:54:38.768Z,4124
2017-06-10T12:55:40.204Z,3420
2017-06-10T12:56:41.644Z,3260
2017-06-10T12:57:43.080Z,4136
2017-06-10T12:58:44.518Z,4476
2017-06-10T12:59:45.952Z,3828
2017-06-10T13:00:47.392Z,3756
2017-06-10T13:01:48.828Z,4012
2017-06-10T13:02:50.285Z,4236
2017-06-10T13:03:51.706Z,4948
2017-06-10T13:04:53.139Z,3824
2017-06-10T13:05:54.575Z,3640
2017-06-10T13:06:56.023Z,2852
2017-06-10T13:07:57.465Z,2680
2017-06-10T13:08:58.906Z,3112
2017-06-10T13:10:00.336Z,4080
2017-06-10T13:11:01.784Z,3436
2017-06-10T13:12:03.212Z,3192
2017-06-10T13:13:04.648Z,3788
2017-06-10T13:14:06.093Z,3924
2017-06-10T13:15:07.523Z,3892
2017-06-10T13:16:08.964Z,3880
2017-06-10T13:17:10.402Z,4636
2017-06-10T13:18:11.868Z,4364
2017-06-10T13:19:13.285Z,4576
2017-06-10T13:20:14.720Z,4168
2017-06-10T13:21:16.157Z,4240
2017-06-10T13:22:17.603Z,4492
2017-06-10T13:23:19.041Z,5084
2017-06-10T13:24:20.484Z,4700
2017-06-10T13:25:21.937Z,4448
2017-06-10T13:26:23.365Z,4508
2017-06-10T13:27:24.801Z,4728
2017-06-10T13:28:26.238Z,4960
2017-06-10T13:29:27.681Z,5012
2017-06-10T13:30:29.120Z,4700
2017-06-10T13:31:30.549Z,3812
2017-06-10T13:32:31.989Z,3928
2017-06-10T13:33:33.427Z,4264
2017-06-10T13:34:34.857Z,4652
2017-06-10T13:35:36.298Z,4840
2017-06-10T13:36:37.741Z,4620
2017-06-10T13:37:39.176Z,4304
2017-06-10T13:38:40.667Z,4140
2017-06-10T13:39:42.112Z,4148
2017-06-10T13:40:43.551Z,4136
2017-06-10T13:41:44.988Z,3976
2017-06-10T13:42:46.431Z,4036
2017-06-10T13:43:47.876Z,3924
2017-06-10T13:44:49.307Z,4072
2017-06-10T13:45:50.761Z,4400
2017-06-10T13:46:52.196Z,4168
2017-06-10T13:47:53.631Z,4484
2017-06-10T13:48:55.073Z,5196
2017-06-10T13:49:56.510Z,5124
2017-06-10T13:50:57.949Z,6492
2017-06-10T13:51:59.392Z,6420
2017-06-10T13:53:00.829Z,6104
2017-06-10T13:54:02.288Z,5556
2017-06-10T13:55:03.726Z,4164
2017-06-10T13:56:05.169Z,4136
2017-06-10T13:57:06.626Z,4248
2017-06-10T13:58:08.061Z,4264
2017-06-10T13:59:09.498Z,4736
2017-06-10T14:00:10.933Z,4044
2017-06-10T14:01:12.381Z,3884
2017-06-10T14:02:13.810Z,3708
2017-06-10T14:03:15.246Z,3412
2017-06-10T14:04:16.743Z,4012
2017-06-10T14:05:18.188Z,4276
2017-06-10T14:06:19.626Z,4296
2017-06-10T14:07:21.066Z,3932
2017-06-10T14:08:22.504Z,4232
2017-06-10T14:09:23.941Z,4104
2017-06-10T14:10:25.377Z,3636
2017-06-10T14:11:26.815Z,3344
2017-06-10T14:12:28.260Z,3056
2017-06-10T14:13:29.702Z,3608
2017-06-10T14:14:31.131Z,4284
2017-06-10T14:15:32.611Z,4380
2017-06-10T14:16:34.060Z,4540
2017-06-10T14:17:35.497Z,4628
2017-06-10T14:18:36.952Z,4084
2017-06-10T14:19:38.417Z,3832
2017-06-10T14:20:39.852Z,3664
2017-06-10T14:21:41.301Z,3588
2017-06-10T14:22:42.735Z,3452
2017-06-10T14:23:44.172Z,3408
2017-06-10T14:24:45.607Z,3684
2017-06-10T14:25:47.052Z,3620
2017-06-10T14:26:48.494Z,3640
2017-06-10T14:27:49.924Z,3320
2017-06-10T14:28:51.364Z,3356
2017-06-10T14:29:52.803Z,3708
2017-06-10T14:30:54.250Z,3544
2017-06-10T14:31:55.686Z,3244
2017-06-10T14:32:57.118Z,3108
2017-06-10T14:33:58.559Z,2732
2017-06-10T14:34:59.995Z,2088
2017-06-10T14:36:01.419Z,2444
2017-06-10T14:37:02.876Z,2836
2017-06-10T14:38:04.319Z,2976
2017-06-10T14:39:05.757Z,3280
2017-06-10T14:40:07.201Z,3708
2017-06-10T14:41:08.714Z,3720
2017-06-10T14:42:10.158Z,3724
2017-06-10T14:43:11.592Z,3532
2017-06-10T14:44:13.049Z,3752
2017-06-10T14:45:14.497Z,4148
2017-06-10T14:46:15.942Z,3972
2017-06-10T14:47:17.379Z,3388
2017-06-10T14:48:18.814Z,2684
2017-06-10T14:49:20.255Z,2528
2017-06-10T14:50:21.695Z,2500
2017-06-10T14:51:23.130Z,2516
2017-06-10T14:52:24.568Z,2296
2017-06-10T14:53:25.999Z,2188
2017-06-10T14:54:27.438Z,1968
2017-06-10T14:55:28.893Z,1996
2017-06-10T14:56:30.333Z,2096
2017-06-10T14:57:31.772Z,2136
2017-06-10T14:58:33.214Z,2176
2017-06-10T14:59:34.744Z,2436
2017-06-10T15:00:36.178Z,2700
2017-06-10T15:01:37.621Z,2596
2017-06-10T15:02:39.059Z,2488
2017-06-10T15:03:40.498Z,2416
2017-06-10T15:04:41.945Z,2216
2017-06-10T15:05:43.377Z,1836
2017-06-10T15:06:44.816Z,1676
2017-06-10T15:07:46.265Z,1796
2017-06-10T15:08:47.699Z,1836
2017-06-10T15:09:49.696Z,1820
2017-06-10T15:10:51.129Z,1620
2017-06-10T15:11:52.570Z,1684
2017-06-10T15:12:54.004Z,2064
2017-06-10T15:13:55.444Z,2304
2017-06-10T15:14:56.871Z,2500
2017-06-10T15:15:58.316Z,2640
2017-06-10T15:16:59.749Z,2684
2017-06-10T15:18:01.195Z,2840
2017-06-10T15:19:02.633Z,2956
2017-06-10T15:20:04.072Z,2996
2017-06-10T15:21:05.509Z,2996
2017-06-10T15:22:06.946Z,3048
2017-06-10T15:23:08.386Z,3024
2017-06-10T15:24:09.827Z,3080
2017-06-10T15:25:11.265Z,3128
2017-06-10T15:26:12.698Z,3076
2017-06-10T15:27:14.143Z,3032
2017-06-10T15:28:15.580Z,2948
2017-06-10T15:29:17.012Z,2880
2017-06-10T15:30:18.446Z,2660
2017-06-10T15:31:19.883Z,2484
2017-06-10T15:32:21.311Z,2444
2017-06-10T15:33:22.751Z,2408
2017-06-10T15:34:24.187Z,2500
2017-06-10T15:35:25.623Z,3256
2017-06-10T15:36:27.063Z,3912
2017-06-10T15:37:28.504Z,2364
2017-06-10T15:38:29.940Z,2212
2017-06-10T15:39:31.382Z,1828
2017-06-10T15:40:32.823Z,2896
2017-06-10T15:41:34.264Z,2096
2017-06-10T15:42:35.706Z,1840
2017-06-10T15:43:37.139Z,1732
2017-06-10T15:44:38.569Z,1652
2017-06-10T15:45:40.011Z,1468
2017-06-10T15:46:41.451Z,1216
2017-06-10T15:47:42.893Z,1192
2017-06-10T15:48:44.326Z,1120
2017-06-10T15:49:45.760Z,1088
2017-06-10T15:50:47.198Z,1092
2017-06-10T15:51:48.639Z,1108
2017-06-10T15:52:50.081Z,1104
2017-06-10T15:53:51.511Z,1192
2017-06-10T15:54:52.949Z,1092
2017-06-10T15:55:54.392Z,996
2017-06-10T15:56:55.823Z,984
2017-06-10T15:57:57.262Z,1008
2017-06-10T15:58:58.687Z,1052
2017-06-10T16:00:00.136Z,956
2017-06-10T16:01:01.578Z,876
2017-06-10T16:02:03.013Z,868
2017-06-10T16:03:04.454Z,964
2017-06-10T16:04:05.893Z,1000
2017-06-10T16:05:07.335Z,980
2017-06-10T16:06:08.760Z,988
2017-06-10T16:07:10.197Z,904
2017-06-10T16:08:11.630Z,840
2017-06-10T16:09:13.061Z,824
2017-06-10T16:10:14.494Z,820
2017-06-10T16:11:15.928Z,836
2017-06-10T16:12:17.357Z,884
2017-06-10T16:13:18.809Z,888
2017-06-10T16:14:20.242Z,772
2017-06-10T16:15:21.674Z,776
2017-06-10T16:16:23.112Z,840
2017-06-10T16:17:24.561Z,772
2017-06-10T16:18:25.994Z,704
2017-06-10T16:19:27.421Z,684
2017-06-10T16:20:28.851Z,600
2017-06-10T16:21:30.290Z,676
2017-06-10T16:22:31.725Z,712
2017-06-10T16:23:33.164Z,796
2017-06-10T16:24:34.607Z,920
2017-06-10T16:25:36.041Z,652
2017-06-10T16:26:37.484Z,628
2017-06-10T16:27:38.920Z,772
2017-06-10T16:28:40.360Z,700
2017-06-10T16:29:41.789Z,776
2017-06-10T16:30:43.225Z,704
2017-06-10T16:31:44.662Z,668
2017-06-10T16:32:46.096Z,760
2017-06-10T16:33:47.528Z,672
2017-06-10T16:34:48.997Z,660
2017-06-10T16:35:50.440Z,652
2017-06-10T16:36:51.875Z,640
2017-06-10T16:37:53.306Z,628
2017-06-10T16:38:54.743Z,628
2017-06-10T16:39:56.179Z,624
2017-06-10T16:40:57.607Z,616
2017-06-10T16:41:59.047Z,612
2017-06-10T16:43:00.486Z,612
2017-06-10T16:44:01.920Z,612
2017-06-10T16:45:03.354Z,612
2017-06-10T16:46:04.791Z,608
2017-06-10T16:47:06.229Z,608
2017-06-10T16:48:07.667Z,616
2017-06-10T16:49:09.099Z,612
2017-06-10T16:50:10.552Z,608
2017-06-10T16:51:11.982Z,608
2017-06-10T16:52:13.412Z,592
2017-06-10T16:53:14.849Z,508
2017-06-10T16:54:16.285Z,572
2017-06-10T16:55:17.717Z,632
2017-06-10T16:56:19.156Z,636
2017-06-10T16:57:20.582Z,572
2017-06-10T16:58:22.014Z,500
2017-06-10T16:59:23.455Z,476
2017-06-10T17:00:24.896Z,536
2017-06-10T17:01:26.325Z,548
2017-06-10T17:02:27.756Z,544
2017-06-10T17:03:29.194Z,552
2017-06-10T17:04:30.626Z,552
2017-06-10T17:05:32.064Z,540
2017-06-10T17:06:33.492Z,552
2017-06-10T17:07:34.929Z,536
2017-06-10T17:08:36.366Z,544
2017-06-10T17:09:37.807Z,520
2017-06-10T17:10:39.251Z,520
2017-06-10T17:11:40.683Z,516
2017-06-10T17:12:42.119Z,512
2017-06-10T17:13:43.559Z,508
2017-06-10T17:14:44.996Z,504
2017-06-10T17:15:46.424Z,500
2017-06-10T17:16:47.855Z,488
2017-06-10T17:17:49.290Z,488
2017-06-10T17:18:50.730Z,572
2017-06-10T17:19:52.168Z,572
2017-06-10T17:20:53.602Z,484
2017-06-10T17:21:55.026Z,480
2017-06-10T17:22:56.467Z,472
2017-06-10T17:23:57.907Z,472
2017-06-10T17:24:59.348Z,468
2017-06-10T17:26:00.776Z,460
2017-06-10T17:27:02.209Z,468
2017-06-10T17:28:03.652Z,312
2017-06-10T17:29:05.080Z,460
2017-06-10T17:30:06.514Z,456
2017-06-10T17:31:07.945Z,436
2017-06-10T17:32:09.376Z,448
2017-06-10T17:33:10.809Z,444
2017-06-10T17:34:12.249Z,444
2017-06-10T17:35:13.687Z,440
2017-06-10T17:36:15.109Z,440
2017-06-10T17:37:16.553Z,436
2017-06-10T17:38:18.001Z,436
2017-06-10T17:39:19.434Z,428
2017-06-10T17:40:20.873Z,428
2017-06-10T17:41:22.302Z,424
2017-06-10T17:42:23.729Z,420
2017-06-10T17:43:25.165Z,416
2017-06-10T17:44:26.597Z,412
2017-06-10T17:45:28.032Z,408
2017-06-10T17:46:29.466Z,404
2017-06-10T17:47:30.897Z,400
2017-06-10T17:48:32.327Z,396
2017-06-10T17:49:33.769Z,392
2017-06-10T17:50:35.209Z,388
2017-06-10T17:51:36.638Z,388
2017-06-10T17:52:38.076Z,380
2017-06-10T17:53:39.509Z,380
2017-06-10T17:54:40.944Z,376
2017-06-10T17:55:42.387Z,376
2017-06-10T17:56:43.826Z,372
2017-06-10T17:57:45.262Z,368
2017-06-10T17:58:46.691Z,368
2017-06-10T17:59:48.131Z,364
2017-06-10T18:00:49.574Z,360
2017-06-10T18:01:51.009Z,360
2017-06-10T18:02:52.439Z,356
2017-06-10T18:03:53.867Z,360
2017-06-10T18:04:55.308Z,356
2017-06-10T18:05:56.740Z,356
2017-06-10T18:06:58.173Z,356
2017-06-10T18:07:59.602Z,348
2017-06-10T18:09:01.039Z,348
2017-06-10T18:10:02.482Z,340
2017-06-10T18:11:03.920Z,340
2017-06-10T18:12:05.352Z,340
2017-06-10T18:13:06.785Z,332
2017-06-10T18:14:08.226Z,332
2017-06-10T18:15:09.664Z,328
2017-06-10T18:16:11.100Z,324
2017-06-10T18:17:12.539Z,324
2017-06-10T18:18:13.976Z,320
2017-06-10T18:19:15.416Z,320
2017-06-10T18:20:16.863Z,312
2017-06-10T18:21:18.293Z,316
2017-06-10T18:22:19.729Z,308
2017-06-10T18:23:21.168Z,304
2017-06-10T18:24:22.608Z,300
2017-06-10T18:25:24.033Z,300
2017-06-10T18:26:25.465Z,296
2017-06-10T18:27:26.903Z,292
2017-06-10T18:28:28.336Z,288
2017-06-10T18:29:29.766Z,288
2017-06-10T18:30:31.209Z,284
2017-06-10T18:31:32.656Z,280
2017-06-10T18:32:34.100Z,276
2017-06-10T18:33:35.535Z,276
2017-06-10T18:34:36.977Z,272
2017-06-10T18:35:38.407Z,264
2017-06-10T18:36:39.841Z,264
2017-06-10T18:37:41.303Z,260
2017-06-10T18:38:42.737Z,256
2017-06-10T18:39:44.231Z,256
2017-06-10T18:40:45.666Z,252
2017-06-10T18:41:47.105Z,144
2017-06-10T18:42:48.539Z,244
2017-06-10T18:43:49.985Z,240
2017-06-10T18:44:51.429Z,236
2017-06-10T18:45:52.867Z,236
2017-06-10T18:46:54.297Z,232
2017-06-10T18:47:55.734Z,232
2017-06-10T18:48:57.166Z,224
2017-06-10T18:49:58.610Z,224
2017-06-10T18:51:00.055Z,220
2017-06-10T18:52:01.489Z,216
2017-06-10T18:53:03.011Z,212
2017-06-10T18:54:04.445Z,204
2017-06-10T18:55:05.888Z,204
2017-06-10T18:56:07.318Z,200
2017-06-10T18:57:08.760Z,200
2017-06-10T18:58:10.201Z,196
2017-06-10T18:59:11.640Z,192
2017-06-10T19:00:13.074Z,188
2017-06-10T19:01:14.510Z,188
2017-06-10T19:02:15.939Z,184
2017-06-10T19:03:17.391Z,180
2017-06-10T19:04:18.828Z,176
2017-06-10T19:05:20.268Z,172
2017-06-10T19:06:21.711Z,164
2017-06-10T19:07:23.143Z,156
2017-06-10T19:08:24.579Z,156
2017-06-10T19:09:26.007Z,148
2017-06-10T19:10:27.447Z,144
2017-06-10T19:11:28.903Z,144
2017-06-10T19:12:30.346Z,136
2017-06-10T19:13:31.781Z,136
2017-06-10T19:14:33.211Z,132
2017-06-10T19:15:34.647Z,124
2017-06-10T19:16:36.106Z,120
2017-06-10T19:17:37.539Z,116
2017-06-10T19:18:38.978Z,116
2017-06-10T19:19:40.426Z,112
2017-06-10T19:20:41.861Z,108
2017-06-10T19:21:43.301Z,104
2017-06-10T19:22:44.737Z,100
2017-06-10T19:23:46.173Z,96
2017-06-10T19:24:47.595Z,92
2017-06-10T19:25:49.038Z,88
2017-06-10T19:26:50.461Z,88
2017-06-10T19:27:51.904Z,80
2017-06-10T19:28:53.340Z,76
2017-06-10T19:29:54.782Z,76
2017-06-10T19:30:56.230Z,72
2017-06-10T19:31:57.656Z,68
2017-06-10T19:32:59.090Z,64
2017-06-10T19:34:00.518Z,64
2017-06-10T19:35:01.966Z,56
2017-06-10T19:36:03.402Z,56
2017-06-10T19:37:04.840Z,52
2017-06-10T19:38:06.269Z,48
2017-06-10T19:39:07.699Z,44
2017-06-10T19:40:09.133Z,44
2017-06-10T19:41:10.561Z,40
2017-06-10T19:42:11.995Z,40
2017-06-10T19:43:13.421Z,36
2017-06-10T19:44:14.848Z,32
2017-06-10T19:45:16.276Z,32
2017-06-10T19:46:17.709Z,28
2017-06-10T19:47:19.138Z,28
2017-06-10T19:48:20.566Z,24
2017-06-10T19:49:22.000Z,24